Airfield :
LOGIN :

Register | Disclaimer

   EN    FR    IT 

 










Legend :    VFR   Marginal VFR   IFR   Intensive IFR   Very Intensive IFR
Visi :
Ceiling :
>= 8 km
>= 3000ft
5 to 8 km
1000 to 3000 ft
1500m to 5 km
500 to 1000 ft
800 to 1500m
200 to 500 ft
< 800m
< 200 ft
Symbols :   Thunderstorms  Fog  Heavy snow  Heavy precipitations  Wind > 20 kt
SIGMETs :     Misc.  Thunderstorms  Icing  Turbulence  Mountain Waves  Volcanic Ashes







- Airport Elevation : 659 ft
- IATA code : LGG


EBLG - Liège

CURRENT METAR :
  • 200520Z 19010KT 9999 SCT042 16/12 Q1018 NOSIG

EXPIRED METARs :
  • 200450Z 19010KT 9999 FEW042 16/12 Q1018 NOSIG
  • 200420Z 19009KT 9999 FEW042 16/12 Q1018 NOSIG
  • 200350Z 19009KT CAVOK 16/12 Q1018 NOSIG
  • 200320Z 19009KT CAVOK 17/12 Q1018 NOSIG
  • 200250Z 18008KT CAVOK 16/12 Q1018 NOSIG

TAF TAF EBLG
Valid from the 20 at 06:00 until the 21 at 12:00 UTC


200520Z 2006/2112 20010KT 9999 FEW028
PROB30
TEMPO 2104/2110 22016G30KT
PROB30
TEMPO 2106/2111 3400 RA SHRA BKN012
BECMG 2110/2112 26017G30KT
No reported NOTAMs for that airfield.



MET'MAP, your aeronautical weather chart ! - Copyright ORBIFLY December 2007 - Disclaimer

ORBIFLY MET'MAP TEAM :

Programming & Development : Alexandra Zaïnal
Concept & Development : Baudouin d'Aumeries
Co-Development & Prog : Marc-Olivier Méhu
Technical & hardware support : Manuel Goepfert

Contact : metmap@orbifly.com




SOURCES & CREDITS :

   NOAA